createdAt,value
2023-01-09T00:01:30.022Z,85.14
2023-01-09T00:03:57.677Z,85.12
2023-01-09T00:06:25.308Z,84.98
2023-01-09T00:08:52.628Z,86.59
2023-01-09T00:11:20.747Z,86.26
2023-01-09T00:13:48.190Z,85.73
2023-01-09T00:16:16.717Z,87.52
2023-01-09T00:18:44.098Z,89.44
2023-01-09T00:21:13.514Z,88.32
2023-01-09T00:23:41.086Z,89.34
2023-01-09T00:26:17.095Z,89.02
2023-01-09T00:28:47.592Z,89.67
2023-01-09T00:31:16.146Z,90.46
2023-01-09T00:33:50.472Z,90.73
2023-01-09T00:36:18.176Z,90.43
2023-01-09T00:38:45.459Z,91.88
2023-01-09T00:41:23.332Z,90.71
2023-01-09T00:43:58.726Z,91.20
2023-01-09T00:46:38.881Z,90.48
2023-01-09T00:49:09.738Z,90.46
2023-01-09T00:51:39.185Z,90.13
2023-01-09T00:54:06.930Z,89.79
2023-01-09T00:56:36.268Z,89.75
2023-01-09T00:59:04.705Z,89.83
2023-01-09T01:01:32.354Z,89.56
2023-01-09T01:04:19.814Z,90.04
2023-01-09T01:07:05.872Z,89.55
2023-01-09T01:09:33.243Z,90.32
2023-01-09T01:12:07.233Z,89.55
2023-01-09T01:14:39.599Z,89.99
2023-01-09T01:17:08.302Z,89.54
2023-01-09T01:19:36.444Z,89.75
2023-01-09T01:22:04.121Z,90.17
2023-01-09T01:24:31.542Z,89.56
2023-01-09T01:26:59.117Z,91.10
2023-01-09T01:29:27.882Z,91.64
2023-01-09T01:31:55.531Z,90.64
2023-01-09T01:34:23.127Z,92.21
2023-01-09T01:36:50.698Z,91.15
2023-01-09T01:39:18.211Z,89.94
2023-01-09T01:41:45.865Z,88.97
2023-01-09T01:45:00.029Z,90.10
2023-01-09T01:47:49.091Z,89.52
2023-01-09T01:50:49.917Z,89.22
2023-01-09T01:53:39.756Z,91.62
2023-01-09T01:56:30.504Z,91.19
2023-01-09T01:59:36.747Z,91.68
2023-01-09T02:02:05.296Z,91.08
2023-01-09T02:04:40.134Z,91.47
2023-01-09T02:07:10.315Z,91.63
2023-01-09T02:09:42.169Z,91.61
2023-01-09T02:12:26.075Z,91.29
2023-01-09T02:15:05.097Z,91.43
2023-01-09T02:18:04.305Z,91.63
2023-01-09T02:20:50.703Z,91.01
2023-01-09T02:23:50.930Z,90.85
2023-01-09T02:26:49.032Z,90.67
2023-01-09T02:29:43.956Z,90.69
2023-01-09T02:32:29.542Z,90.44
2023-01-09T02:35:32.883Z,90.16
2023-01-09T02:38:15.299Z,89.99
2023-01-09T02:41:11.412Z,89.95
2023-01-09T02:43:41.811Z,89.92
2023-01-09T02:46:21.797Z,89.65
2023-01-09T02:48:54.441Z,89.71
2023-01-09T02:51:54.413Z,90.05
2023-01-09T02:54:49.692Z,90.31
2023-01-09T02:57:49.872Z,90.31
2023-01-09T03:00:32.560Z,90.11
2023-01-09T03:03:11.619Z,90.77
2023-01-09T03:05:51.982Z,91.66
2023-01-09T03:08:25.180Z,92.00
2023-01-09T03:11:06.803Z,91.42
2023-01-09T03:13:46.080Z,91.42
2023-01-09T03:16:21.786Z,91.25
2023-01-09T03:18:51.892Z,91.96
2023-01-09T03:21:21.681Z,92.45
2023-01-09T03:23:58.576Z,92.07
2023-01-09T03:26:29.198Z,91.81
2023-01-09T03:28:57.772Z,92.20
2023-01-09T03:31:25.931Z,91.52
2023-01-09T03:33:53.789Z,91.96
2023-01-09T03:36:22.945Z,92.38
2023-01-09T03:38:51.536Z,92.43
2023-01-09T03:41:19.892Z,92.41
2023-01-09T03:43:48.601Z,92.67
2023-01-09T03:46:17.613Z,92.80
2023-01-09T03:48:44.967Z,92.85
2023-01-09T03:51:12.608Z,93.42
2023-01-09T03:53:40.006Z,93.68
2023-01-09T03:56:08.061Z,94.09
2023-01-09T03:58:35.356Z,94.00
2023-01-09T04:01:05.971Z,94.09
2023-01-09T04:03:33.334Z,94.08
2023-01-09T04:06:01.927Z,94.20
2023-01-09T04:08:29.179Z,94.40
2023-01-09T04:10:57.090Z,94.57
2023-01-09T04:13:24.507Z,94.20
2023-01-09T04:15:52.033Z,93.83
2023-01-09T04:18:19.313Z,94.19
2023-01-09T04:20:50.044Z,94.27
2023-01-09T04:23:17.466Z,94.20
2023-01-09T04:25:45.898Z,94.16
2023-01-09T04:28:13.262Z,94.39
2023-01-09T04:30:40.808Z,94.03
2023-01-09T04:33:08.076Z,93.74
2023-01-09T04:35:35.645Z,93.23
2023-01-09T04:38:03.022Z,93.04
2023-01-09T04:40:30.596Z,92.46
2023-01-09T04:42:57.804Z,93.23
2023-01-09T04:45:25.375Z,93.14
2023-01-09T04:47:52.658Z,92.94
2023-01-09T04:50:20.277Z,92.60
2023-01-09T04:52:47.570Z,92.67
2023-01-09T04:55:15.140Z,92.76
2023-01-09T04:57:42.377Z,92.45
2023-01-09T05:00:12.403Z,92.06
2023-01-09T05:02:40.943Z,91.84
2023-01-09T05:05:11.707Z,91.93
2023-01-09T05:07:39.906Z,92.60
2023-01-09T05:10:10.156Z,92.52
2023-01-09T05:12:37.821Z,92.28
2023-01-09T05:15:07.009Z,93.12
2023-01-09T05:17:34.819Z,92.83
2023-01-09T05:20:02.447Z,93.60
2023-01-09T05:22:30.059Z,92.92
2023-01-09T05:25:00.276Z,93.09
2023-01-09T05:27:28.191Z,92.93
2023-01-09T05:29:55.837Z,93.13
2023-01-09T05:32:23.178Z,93.15
2023-01-09T05:34:50.751Z,92.86
2023-01-09T05:37:18.029Z,92.52
2023-01-09T05:39:45.593Z,92.38
2023-01-09T05:42:12.841Z,92.05
2023-01-09T05:44:40.462Z,91.97
2023-01-09T05:47:07.749Z,91.84
2023-01-09T05:49:35.266Z,91.51
2023-01-09T05:52:02.683Z,91.58
2023-01-09T05:54:30.486Z,91.63
2023-01-09T05:56:58.079Z,91.18
2023-01-09T05:59:25.678Z,90.86
2023-01-09T06:01:54.479Z,90.75
2023-01-09T06:04:22.372Z,90.28
2023-01-09T06:06:49.637Z,90.24
2023-01-09T06:09:17.159Z,89.62
2023-01-09T06:11:44.479Z,89.03
2023-01-09T06:14:12.055Z,88.86
2023-01-09T06:16:39.421Z,88.41
2023-01-09T06:19:07.312Z,87.61
2023-01-09T06:21:34.829Z,88.05
2023-01-09T06:24:02.463Z,88.03
2023-01-09T06:26:29.857Z,87.70
2023-01-09T06:28:57.554Z,87.47
2023-01-09T06:31:25.537Z,87.18
2023-01-09T06:33:54.098Z,86.81
2023-01-09T06:36:22.595Z,86.61
2023-01-09T06:38:50.354Z,86.90
2023-01-09T06:41:18.469Z,86.32
2023-01-09T06:43:46.063Z,85.83
2023-01-09T06:46:13.528Z,86.26
2023-01-09T06:48:41.157Z,86.26
2023-01-09T06:51:08.551Z,86.84
2023-01-09T06:53:36.156Z,87.18
2023-01-09T06:56:03.733Z,87.81
2023-01-09T06:58:31.345Z,88.76
2023-01-09T07:01:01.640Z,89.51
2023-01-09T07:03:29.423Z,90.74
2023-01-09T07:05:57.021Z,90.90
2023-01-09T07:08:24.724Z,91.21
2023-01-09T07:10:52.892Z,91.21
2023-01-09T07:13:20.495Z,91.59
2023-01-09T07:15:47.873Z,92.66
2023-01-09T07:18:15.608Z,92.54
2023-01-09T07:20:42.955Z,93.13
2023-01-09T07:23:14.482Z,92.81
2023-01-09T07:25:45.725Z,93.04
2023-01-09T07:28:13.433Z,93.55
2023-01-09T07:30:40.793Z,93.30
2023-01-09T07:33:08.409Z,93.43
2023-01-09T07:35:35.981Z,93.57
2023-01-09T07:38:03.578Z,93.73
2023-01-09T07:40:31.037Z,93.52
2023-01-09T07:42:58.622Z,93.39
2023-01-09T07:45:25.954Z,92.91
2023-01-09T07:47:53.591Z,92.74
2023-01-09T07:50:21.079Z,92.64
2023-01-09T07:52:48.860Z,92.94
2023-01-09T07:55:17.563Z,93.01
2023-01-09T07:57:50.196Z,92.34
2023-01-09T08:00:19.068Z,92.53
2023-01-09T08:02:51.001Z,92.48
2023-01-09T08:05:19.130Z,92.47
2023-01-09T08:07:46.732Z,92.52
2023-01-09T08:10:14.063Z,91.83
2023-01-09T08:12:44.421Z,91.93
2023-01-09T08:15:12.782Z,91.85
2023-01-09T08:17:43.996Z,91.52
2023-01-09T08:20:13.466Z,91.20
2023-01-09T08:22:50.608Z,90.61
2023-01-09T08:25:18.703Z,90.63
2023-01-09T08:27:47.171Z,90.21
2023-01-09T08:30:15.870Z,89.56
2023-01-09T08:32:44.127Z,89.47
2023-01-09T08:35:12.074Z,89.04
2023-01-09T08:37:39.649Z,88.85
2023-01-09T08:40:07.909Z,88.84
2023-01-09T08:42:54.827Z,88.71
2023-01-09T08:45:40.786Z,88.40
2023-01-09T08:48:08.750Z,88.75
2023-01-09T08:50:36.153Z,88.55
2023-01-09T08:53:03.903Z,88.59
2023-01-09T08:55:31.257Z,88.24
2023-01-09T08:57:58.841Z,88.04
2023-01-09T09:00:26.658Z,88.20
2023-01-09T09:02:57.322Z,88.32
2023-01-09T09:05:27.638Z,88.30
2023-01-09T09:07:55.950Z,88.49
2023-01-09T09:10:26.884Z,88.42
2023-01-09T09:12:57.880Z,88.52
2023-01-09T09:15:28.243Z,87.90
2023-01-09T09:17:59.795Z,88.12
2023-01-09T09:20:31.273Z,88.01
2023-01-09T09:22:59.327Z,88.04
2023-01-09T09:25:27.845Z,88.00
2023-01-09T09:28:01.190Z,88.03
2023-01-09T09:30:28.855Z,88.54
2023-01-09T09:32:56.660Z,89.33
2023-01-09T09:35:24.072Z,88.59
2023-01-09T09:38:03.921Z,88.57
2023-01-09T09:40:43.004Z,89.54
2023-01-09T09:44:32.463Z,89.87
2023-01-09T09:47:11.078Z,90.17
2023-01-09T09:50:17.702Z,90.40
2023-01-09T09:52:50.705Z,90.46
2023-01-09T09:55:32.289Z,89.68
2023-01-09T09:58:30.742Z,90.46
2023-01-09T10:01:01.229Z,89.93
2023-01-09T10:03:49.202Z,90.47
2023-01-09T10:06:31.362Z,89.27
2023-01-09T10:09:16.819Z,89.76
2023-01-09T10:12:31.791Z,89.60
2023-01-09T10:15:17.972Z,88.49
2023-01-09T10:17:48.377Z,88.04
2023-01-09T10:20:36.634Z,86.96
2023-01-09T10:23:38.349Z,86.41
2023-01-09T10:26:21.969Z,86.91
2023-01-09T10:29:23.317Z,86.99
2023-01-09T10:32:33.493Z,87.58
2023-01-09T10:35:36.115Z,87.40
2023-01-09T10:38:15.938Z,87.94
2023-01-09T10:41:07.874Z,87.84
2023-01-09T10:43:44.738Z,86.86
2023-01-09T10:46:35.875Z,86.23
2023-01-09T10:49:16.514Z,86.33
2023-01-09T10:51:52.385Z,86.01
2023-01-09T10:54:23.840Z,85.69
2023-01-09T10:57:12.675Z,86.83
2023-01-09T10:59:42.439Z,86.86
2023-01-09T11:02:37.451Z,87.87
2023-01-09T11:05:05.206Z,88.33
2023-01-09T11:07:39.272Z,88.77
2023-01-09T11:10:12.227Z,89.03
2023-01-09T11:12:40.648Z,89.79
2023-01-09T11:15:17.092Z,90.05
2023-01-09T11:17:50.546Z,89.28
2023-01-09T11:20:28.782Z,89.83
2023-01-09T11:22:59.008Z,90.16
2023-01-09T11:25:29.425Z,90.96
2023-01-09T11:28:09.836Z,90.67
2023-01-09T11:30:51.945Z,91.78
2023-01-09T11:33:24.794Z,92.47
2023-01-09T11:36:00.520Z,92.92
2023-01-09T11:38:31.906Z,92.83
2023-01-09T11:41:04.026Z,92.18
2023-01-09T11:43:40.163Z,91.67
2023-01-09T11:46:11.696Z,92.40
2023-01-09T11:48:59.299Z,94.64
2023-01-09T11:51:36.905Z,95.35
2023-01-09T11:54:23.821Z,96.46
2023-01-09T11:56:52.521Z,96.11
2023-01-09T11:59:26.441Z,97.61
2023-01-09T12:02:29.521Z,97.46
2023-01-09T12:05:15.963Z,97.20
2023-01-09T12:08:26.366Z,97.83
2023-01-09T12:11:21.465Z,98.57
2023-01-09T12:14:20.580Z,99.15
2023-01-09T12:17:06.543Z,98.83
2023-01-09T12:20:10.167Z,98.84
2023-01-09T12:23:23.336Z,98.60
2023-01-09T12:26:11.485Z,98.49
2023-01-09T12:29:29.280Z,98.93
2023-01-09T12:32:34.956Z,98.78
2023-01-09T12:35:34.283Z,98.11
2023-01-09T12:38:29.538Z,97.83
2023-01-09T12:41:23.926Z,97.94
2023-01-09T12:44:08.867Z,98.22
2023-01-09T12:46:53.881Z,98.19
2023-01-09T12:49:35.665Z,98.63
2023-01-09T12:52:23.456Z,98.69
2023-01-09T12:55:17.123Z,97.82
2023-01-09T12:57:52.410Z,97.53
2023-01-09T13:00:58.732Z,96.35
2023-01-09T13:04:03.639Z,95.45
2023-01-09T13:06:37.483Z,95.90
2023-01-09T13:09:43.328Z,96.62
2023-01-09T13:12:21.739Z,97.26
2023-01-09T13:15:33.102Z,97.90
2023-01-09T13:18:23.122Z,97.92
2023-01-09T13:20:56.793Z,97.90
2023-01-09T13:24:01.824Z,97.47
2023-01-09T13:26:42.015Z,97.40
2023-01-09T13:29:22.855Z,97.74
2023-01-09T13:32:01.197Z,97.82
2023-01-09T13:34:32.507Z,97.79
2023-01-09T13:37:00.998Z,97.43
2023-01-09T13:39:33.943Z,97.79
2023-01-09T13:42:24.997Z,97.25
2023-01-09T13:45:11.052Z,97.43
2023-01-09T13:47:39.023Z,97.89
2023-01-09T13:50:22.281Z,96.87
2023-01-09T13:52:50.660Z,97.01
2023-01-09T13:55:18.049Z,96.37
2023-01-09T13:57:45.664Z,95.54
2023-01-09T14:00:13.000Z,95.21
2023-01-09T14:02:44.997Z,94.59
2023-01-09T14:05:16.389Z,94.30
2023-01-09T14:07:49.399Z,94.33
2023-01-09T14:10:52.292Z,93.60
2023-01-09T14:13:44.933Z,93.23
2023-01-09T14:16:27.319Z,93.21
2023-01-09T14:19:06.286Z,93.26
2023-01-09T14:22:04.662Z,94.63
2023-01-09T14:24:43.066Z,94.64
2023-01-09T14:27:55.519Z,95.02
2023-01-09T14:30:38.322Z,94.73
2023-01-09T14:33:18.607Z,94.81
2023-01-09T14:36:24.269Z,94.83
2023-01-09T14:39:08.107Z,95.25
2023-01-09T14:42:00.814Z,95.62
2023-01-09T14:44:43.379Z,95.37
2023-01-09T14:47:43.306Z,95.01
2023-01-09T14:50:46.531Z,95.65
2023-01-09T14:53:24.644Z,96.19
2023-01-09T14:55:58.154Z,95.90
2023-01-09T14:58:36.977Z,96.38
2023-01-09T15:01:15.235Z,96.37
2023-01-09T15:03:59.060Z,96.75
2023-01-09T15:06:36.197Z,96.38
2023-01-09T15:09:15.993Z,96.34
2023-01-09T15:11:45.072Z,96.54
2023-01-09T15:14:43.633Z,96.24
2023-01-09T15:17:30.713Z,96.26
2023-01-09T15:20:04.972Z,96.95
2023-01-09T15:22:35.872Z,97.15
2023-01-09T15:25:45.410Z,97.27
2023-01-09T15:28:35.021Z,97.80
2023-01-09T15:31:18.212Z,98.21
2023-01-09T15:33:48.529Z,98.23
2023-01-09T15:36:21.262Z,98.29
2023-01-09T15:38:50.873Z,97.82
2023-01-09T15:41:49.496Z,97.24
2023-01-09T15:44:30.324Z,97.28
2023-01-09T15:47:01.494Z,97.69
2023-01-09T15:49:29.811Z,97.45
2023-01-09T15:51:57.888Z,96.77
2023-01-09T15:54:33.047Z,96.47
2023-01-09T15:57:25.500Z,97.34
2023-01-09T16:00:17.751Z,98.51
2023-01-09T16:03:06.708Z,98.42
2023-01-09T16:05:34.162Z,98.41
2023-01-09T16:08:02.703Z,98.57
2023-01-09T16:10:36.092Z,98.79
2023-01-09T16:13:03.959Z,99.20
2023-01-09T16:15:35.109Z,99.37
2023-01-09T16:18:15.620Z,99.08
2023-01-09T16:20:44.489Z,99.13
2023-01-09T16:23:29.641Z,98.84
2023-01-09T16:26:04.212Z,98.58
2023-01-09T16:28:32.304Z,98.51
2023-01-09T16:31:27.258Z,98.30
2023-01-09T16:34:07.439Z,98.28
2023-01-09T16:36:36.721Z,98.56
2023-01-09T16:39:04.839Z,98.34
2023-01-09T16:41:50.519Z,98.42
2023-01-09T16:44:19.531Z,98.24
2023-01-09T16:46:47.036Z,98.17
2023-01-09T16:49:23.655Z,97.93
2023-01-09T16:51:52.241Z,98.05
2023-01-09T16:54:20.993Z,97.89
2023-01-09T16:56:52.339Z,98.08
2023-01-09T16:59:26.698Z,97.66
2023-01-09T17:01:55.450Z,97.29
2023-01-09T17:04:26.101Z,97.48
2023-01-09T17:06:53.528Z,97.41
2023-01-09T17:09:24.593Z,98.08
2023-01-09T17:11:53.291Z,97.94
2023-01-09T17:14:20.978Z,97.83
2023-01-09T17:16:48.589Z,97.71
2023-01-09T17:19:20.735Z,98.02
2023-01-09T17:21:48.156Z,97.95
2023-01-09T17:24:34.365Z,98.09
2023-01-09T17:27:21.484Z,98.79
2023-01-09T17:29:49.127Z,98.67
2023-01-09T17:32:18.631Z,98.61
2023-01-09T17:34:46.401Z,98.31
2023-01-09T17:37:16.607Z,97.97
2023-01-09T17:39:45.864Z,97.82
2023-01-09T17:42:13.394Z,97.59
2023-01-09T17:44:41.082Z,97.39
2023-01-09T17:47:16.074Z,96.83
2023-01-09T17:49:44.193Z,96.76
2023-01-09T17:52:11.497Z,96.80
2023-01-09T17:54:39.973Z,96.56
2023-01-09T17:57:09.539Z,96.66
2023-01-09T17:59:37.240Z,96.08
2023-01-09T18:02:04.885Z,96.05
2023-01-09T18:04:32.576Z,96.07
2023-01-09T18:06:59.887Z,95.93
2023-01-09T18:09:27.487Z,95.60
2023-01-09T18:11:54.809Z,95.62
2023-01-09T18:14:22.358Z,95.49
2023-01-09T18:16:49.915Z,95.23
2023-01-09T18:19:17.537Z,95.08
2023-01-09T18:21:46.875Z,94.70
2023-01-09T18:24:14.520Z,94.43
2023-01-09T18:26:41.894Z,94.03
2023-01-09T18:29:11.575Z,94.17
2023-01-09T18:31:38.914Z,94.70
2023-01-09T18:34:07.561Z,94.92
2023-01-09T18:36:35.605Z,95.28
2023-01-09T18:39:05.585Z,94.72
2023-01-09T18:41:33.131Z,94.50
2023-01-09T18:44:01.962Z,94.63
2023-01-09T18:46:32.897Z,94.50
2023-01-09T18:49:04.026Z,94.79
2023-01-09T18:51:35.057Z,94.83
2023-01-09T18:54:02.858Z,94.71
2023-01-09T18:56:30.396Z,94.78
2023-01-09T18:58:58.323Z,94.08
2023-01-09T19:01:28.577Z,93.72
2023-01-09T19:03:57.934Z,93.63
2023-01-09T19:06:30.248Z,93.47
2023-01-09T19:09:01.126Z,93.45
2023-01-09T19:11:28.652Z,93.69
2023-01-09T19:13:56.547Z,93.81
2023-01-09T19:16:23.868Z,93.88
2023-01-09T19:18:51.610Z,93.50
2023-01-09T19:21:23.783Z,93.59
2023-01-09T19:23:51.444Z,93.31
2023-01-09T19:26:31.017Z,93.19
2023-01-09T19:28:59.599Z,93.38
2023-01-09T19:31:31.564Z,93.36
2023-01-09T19:33:59.268Z,93.39
2023-01-09T19:36:28.031Z,92.90
2023-01-09T19:39:00.952Z,92.90
2023-01-09T19:41:28.988Z,92.91
2023-01-09T19:43:56.807Z,93.07
2023-01-09T19:46:25.657Z,92.79
2023-01-09T19:48:54.250Z,92.79
2023-01-09T19:51:22.490Z,92.69
2023-01-09T19:56:30.322Z,92.72
2023-01-09T19:59:01.609Z,92.33
2023-01-09T20:01:33.171Z,92.22
2023-01-09T20:04:05.045Z,92.16
2023-01-09T20:06:32.886Z,92.12
2023-01-09T20:09:04.119Z,92.07
2023-01-09T20:11:33.233Z,92.20
2023-01-09T20:14:01.126Z,92.24
2023-01-09T20:16:30.865Z,92.44
2023-01-09T20:19:03.989Z,92.21
2023-01-09T20:21:31.443Z,92.33
2023-01-09T20:24:01.470Z,92.37
2023-01-09T20:26:30.456Z,93.10
2023-01-09T20:28:58.329Z,93.62
2023-01-09T20:31:28.586Z,94.16
2023-01-09T20:33:56.218Z,93.76
2023-01-09T20:36:29.183Z,93.39
2023-01-09T20:39:00.123Z,93.00
2023-01-09T20:41:30.831Z,93.04
2023-01-09T20:44:06.845Z,93.01
2023-01-09T20:46:41.377Z,92.77
2023-01-09T20:49:13.426Z,92.51
2023-01-09T20:51:46.123Z,92.46
2023-01-09T20:54:15.128Z,92.32
2023-01-09T20:56:42.988Z,92.34
2023-01-09T20:59:23.186Z,91.96
2023-01-09T21:01:51.568Z,91.99
2023-01-09T21:04:19.650Z,92.04
2023-01-09T21:06:49.733Z,91.93
2023-01-09T21:09:17.723Z,91.68
2023-01-09T21:11:45.449Z,91.71
2023-01-09T21:14:12.800Z,91.45
2023-01-09T21:16:40.491Z,91.54
2023-01-09T21:19:07.920Z,91.32
2023-01-09T21:21:35.534Z,91.32
2023-01-09T21:24:04.578Z,91.34
2023-01-09T21:26:32.294Z,91.30
2023-01-09T21:29:02.071Z,91.09
2023-01-09T21:31:35.566Z,90.98
2023-01-09T21:34:08.579Z,90.77
2023-01-09T21:36:36.626Z,90.78
2023-01-09T21:39:08.121Z,90.86
2023-01-09T21:41:54.865Z,90.82
2023-01-09T21:44:40.704Z,90.73
2023-01-09T21:47:08.706Z,90.86
2023-01-09T21:49:41.823Z,90.44
2023-01-09T21:52:13.878Z,90.45
2023-01-09T21:54:42.023Z,90.42
2023-01-09T21:57:10.443Z,90.22
2023-01-09T21:59:37.809Z,90.07
2023-01-09T22:02:05.416Z,90.02
2023-01-09T22:04:33.630Z,89.95
2023-01-09T22:07:01.344Z,89.55
2023-01-09T22:09:28.702Z,89.64
2023-01-09T22:11:57.553Z,89.75
2023-01-09T22:14:24.835Z,89.51
2023-01-09T22:16:52.448Z,89.57
2023-01-09T22:19:19.819Z,89.43
2023-01-09T22:21:48.263Z,89.31
2023-01-09T22:24:18.821Z,89.45
2023-01-09T22:26:46.702Z,89.41
2023-01-09T22:29:16.212Z,89.53
2023-01-09T22:31:44.073Z,89.51
2023-01-09T22:34:16.177Z,89.72
2023-01-09T22:36:45.988Z,89.71
2023-01-09T22:39:17.078Z,89.76
2023-01-09T22:41:45.624Z,89.87
2023-01-09T22:44:13.375Z,89.43
2023-01-09T22:46:41.178Z,89.75
2023-01-09T22:49:12.085Z,89.78
2023-01-09T22:51:40.205Z,89.88
2023-01-09T22:54:07.762Z,89.72
2023-01-09T22:56:35.705Z,89.69
2023-01-09T22:59:03.281Z,89.81
2023-01-09T23:01:31.016Z,90.21
2023-01-09T23:03:58.325Z,90.30
2023-01-09T23:06:26.168Z,90.40
2023-01-09T23:08:53.754Z,90.15
2023-01-09T23:11:45.397Z,90.04
2023-01-09T23:14:13.340Z,90.13
2023-01-09T23:16:41.137Z,89.74
2023-01-09T23:19:17.495Z,89.94
2023-01-09T23:21:46.085Z,89.88
2023-01-09T23:24:16.898Z,90.07
2023-01-09T23:26:45.142Z,90.00
2023-01-09T23:29:13.767Z,90.16
2023-01-09T23:31:41.507Z,90.13
2023-01-09T23:34:13.413Z,90.17
2023-01-09T23:36:41.761Z,90.15
2023-01-09T23:39:10.147Z,90.02
2023-01-09T23:42:03.778Z,89.79
2023-01-09T23:44:31.232Z,89.78
2023-01-09T23:46:58.872Z,89.39
2023-01-09T23:49:26.426Z,89.19
2023-01-09T23:52:12.292Z,88.82
2023-01-09T23:54:39.894Z,88.47
2023-01-09T23:57:07.223Z,88.40
2023-01-09T23:59:34.994Z,87.89
